createdAt,value
2019-03-19T00:00:21.316Z,1013.95
2019-03-19T00:01:21.305Z,1013.97
2019-03-19T00:02:21.300Z,1013.99
2019-03-19T00:03:21.297Z,1013.98
2019-03-19T00:04:21.870Z,1014.03
2019-03-19T00:05:21.262Z,1013.98
2019-03-19T00:06:21.247Z,1014.02
2019-03-19T00:07:21.242Z,1013.97
2019-03-19T00:08:21.274Z,1013.95
2019-03-19T00:09:21.229Z,1013.94
2019-03-19T00:10:29.930Z,1013.97
2019-03-19T00:11:21.187Z,1013.93
2019-03-19T00:12:21.171Z,1013.89
2019-03-19T00:13:21.167Z,1013.89
2019-03-19T00:14:21.168Z,1013.91
2019-03-19T00:15:21.147Z,1013.96
2019-03-19T00:16:21.142Z,1014.00
2019-03-19T00:17:21.125Z,1013.93
2019-03-19T00:18:21.118Z,1013.98
2019-03-19T00:19:22.522Z,1013.89
2019-03-19T00:20:21.090Z,1013.94
2019-03-19T00:21:21.084Z,1013.99
2019-03-19T00:22:21.064Z,1014.00
2019-03-19T00:23:21.055Z,1013.97
2019-03-19T00:24:21.043Z,1014.00
2019-03-19T00:25:29.533Z,1014.02
2019-03-19T00:26:22.018Z,1013.92
2019-03-19T00:27:21.010Z,1013.98
2019-03-19T00:28:21.009Z,1014.01
2019-03-19T00:29:20.988Z,1014.01
2019-03-19T00:30:21.012Z,1014.07
2019-03-19T00:31:20.968Z,1014.02
2019-03-19T00:32:20.959Z,1014.08
2019-03-19T00:33:20.953Z,1014.08
2019-03-19T00:34:20.934Z,1014.08
2019-03-19T00:35:20.924Z,1014.08
2019-03-19T00:36:20.940Z,1014.17
2019-03-19T00:37:20.904Z,1014.11
2019-03-19T00:38:20.904Z,1014.15
2019-03-19T00:39:20.882Z,1014.13
2019-03-19T00:40:20.893Z,1014.12
2019-03-19T00:41:20.886Z,1014.09
2019-03-19T00:42:20.852Z,1014.14
2019-03-19T00:43:20.845Z,1014.15
2019-03-19T00:44:20.831Z,1014.10
2019-03-19T00:45:20.845Z,1014.12
2019-03-19T00:46:20.810Z,1014.10
2019-03-19T00:47:20.829Z,1014.11
2019-03-19T00:48:20.798Z,1014.19
2019-03-19T00:49:20.780Z,1014.18
2019-03-19T00:50:20.768Z,1014.15
2019-03-19T00:51:20.785Z,1014.09
2019-03-19T00:52:20.746Z,1014.12
2019-03-19T00:53:20.741Z,1014.05
2019-03-19T00:54:20.724Z,1014.02
2019-03-19T00:55:20.712Z,1014.09
2019-03-19T00:56:20.711Z,1014.07
2019-03-19T00:57:20.720Z,1014.08
2019-03-19T00:58:20.712Z,1014.09
2019-03-19T00:59:20.688Z,1014.06
2019-03-19T01:00:20.660Z,1014.12
2019-03-19T01:01:20.652Z,1014.03
2019-03-19T01:02:20.649Z,1014.01
2019-03-19T01:03:20.627Z,1014.04
2019-03-19T01:04:20.640Z,1014.07
2019-03-19T01:05:20.617Z,1014.10
2019-03-19T01:06:20.605Z,1014.09
2019-03-19T01:07:20.610Z,1014.07
2019-03-19T01:08:20.577Z,1014.14
2019-03-19T01:09:20.594Z,1014.11
2019-03-19T01:10:20.552Z,1014.16
2019-03-19T01:11:20.568Z,1014.09
2019-03-19T01:12:20.534Z,1014.17
2019-03-19T01:13:20.521Z,1014.17
2019-03-19T01:14:20.541Z,1014.18
2019-03-19T01:15:20.542Z,1014.13
2019-03-19T01:16:20.492Z,1014.12
2019-03-19T01:17:20.493Z,1014.14
2019-03-19T01:18:20.468Z,1014.16
2019-03-19T01:19:20.463Z,1014.14
2019-03-19T01:20:20.454Z,1014.12
2019-03-19T01:21:20.467Z,1014.15
2019-03-19T01:22:20.435Z,1014.16
2019-03-19T01:23:20.429Z,1014.16
2019-03-19T01:24:20.409Z,1014.17
2019-03-19T01:25:20.408Z,1014.20
2019-03-19T01:26:20.388Z,1014.23
2019-03-19T01:27:20.414Z,1014.24
2019-03-19T01:28:20.371Z,1014.26
2019-03-19T01:29:20.361Z,1014.25
2019-03-19T01:30:20.348Z,1014.26
2019-03-19T01:31:20.332Z,1014.21
2019-03-19T01:32:20.328Z,1014.25
2019-03-19T01:33:20.339Z,1014.25
2019-03-19T01:34:20.310Z,1014.25
2019-03-19T01:35:20.297Z,1014.20
2019-03-19T01:36:20.283Z,1014.31
2019-03-19T01:37:20.273Z,1014.30
2019-03-19T01:38:20.290Z,1014.31
2019-03-19T01:39:20.247Z,1014.33
2019-03-19T01:40:20.244Z,1014.34
2019-03-19T01:41:20.232Z,1014.36
2019-03-19T01:42:20.224Z,1014.39
2019-03-19T01:43:20.212Z,1014.44
2019-03-19T01:44:20.217Z,1014.40
2019-03-19T01:45:20.202Z,1014.38
2019-03-19T01:46:20.178Z,1014.46
2019-03-19T01:47:20.171Z,1014.43
2019-03-19T01:48:20.151Z,1014.48
2019-03-19T01:49:20.165Z,1014.47
2019-03-19T01:50:20.133Z,1014.49
2019-03-19T01:51:20.123Z,1014.51
2019-03-19T01:52:20.115Z,1014.47
2019-03-19T01:53:20.105Z,1014.47
2019-03-19T01:54:20.120Z,1014.50
2019-03-19T01:55:20.083Z,1014.59
2019-03-19T01:56:20.064Z,1014.56
2019-03-19T01:57:20.063Z,1014.58
2019-03-19T01:58:20.094Z,1014.58
2019-03-19T01:59:20.064Z,1014.62
2019-03-19T02:00:20.030Z,1014.62
2019-03-19T02:01:20.040Z,1014.64
2019-03-19T02:02:20.004Z,1014.68
2019-03-19T02:03:19.990Z,1014.64
2019-03-19T02:04:19.988Z,1014.62
2019-03-19T02:05:20.015Z,1014.62
2019-03-19T02:06:19.966Z,1014.63
2019-03-19T02:07:19.954Z,1014.66
2019-03-19T02:08:19.939Z,1014.69
2019-03-19T02:09:19.937Z,1014.69
2019-03-19T02:10:19.919Z,1014.64
2019-03-19T02:11:19.938Z,1014.63
2019-03-19T02:12:19.903Z,1014.66
2019-03-19T02:13:19.893Z,1014.66
2019-03-19T02:14:19.879Z,1014.67
2019-03-19T02:15:19.871Z,1014.72
2019-03-19T02:16:19.854Z,1014.76
2019-03-19T02:17:19.865Z,1014.72
2019-03-19T02:18:19.866Z,1014.78
2019-03-19T02:19:19.828Z,1014.73
2019-03-19T02:20:19.814Z,1014.75
2019-03-19T02:21:19.800Z,1014.73
2019-03-19T02:22:19.809Z,1014.78
2019-03-19T02:23:19.782Z,1014.74
2019-03-19T02:24:19.807Z,1014.75
2019-03-19T02:25:19.763Z,1014.74
2019-03-19T02:26:19.753Z,1014.76
2019-03-19T02:27:19.746Z,1014.85
2019-03-19T02:28:19.736Z,1014.83
2019-03-19T02:29:19.720Z,1014.87
2019-03-19T02:30:19.726Z,1014.93
2019-03-19T02:31:19.706Z,1014.93
2019-03-19T02:32:19.692Z,1014.97
2019-03-19T02:33:19.683Z,1014.91
2019-03-19T02:34:19.664Z,1014.97
2019-03-19T02:35:19.689Z,1014.96
2019-03-19T02:36:19.649Z,1015.01
2019-03-19T02:37:19.637Z,1014.98
2019-03-19T02:38:19.629Z,1014.96
2019-03-19T02:39:19.621Z,1014.97
2019-03-19T02:40:19.632Z,1014.98
2019-03-19T02:41:19.657Z,1015.04
2019-03-19T02:42:19.584Z,1015.03
2019-03-19T02:43:22.665Z,1015.08
2019-03-19T02:44:19.587Z,1015.10
2019-03-19T02:45:19.558Z,1015.10
2019-03-19T02:46:19.565Z,1015.19
2019-03-19T02:47:19.537Z,1015.06
2019-03-19T02:48:19.520Z,1015.09
2019-03-19T02:49:19.514Z,1015.03
2019-03-19T02:50:19.499Z,1015.05
2019-03-19T02:51:19.517Z,1015.10
2019-03-19T02:52:19.476Z,1015.06
2019-03-19T02:53:19.479Z,1015.08
2019-03-19T02:54:19.452Z,1015.15
2019-03-19T02:55:19.446Z,1015.14
2019-03-19T02:56:31.729Z,1015.17
2019-03-19T02:57:20.462Z,1015.08
2019-03-19T02:58:19.416Z,1015.17
2019-03-19T02:59:19.410Z,1015.15
2019-03-19T03:00:19.398Z,1015.19
2019-03-19T03:01:19.392Z,1015.16
2019-03-19T03:02:19.372Z,1015.19
2019-03-19T03:03:19.390Z,1015.25
2019-03-19T03:04:19.368Z,1015.25
2019-03-19T03:05:19.344Z,1015.30
2019-03-19T03:06:19.337Z,1015.27
2019-03-19T03:07:19.320Z,1015.20
2019-03-19T03:08:19.351Z,1015.27
2019-03-19T03:09:19.300Z,1015.25
2019-03-19T03:10:19.289Z,1015.25
2019-03-19T03:11:19.275Z,1015.28
2019-03-19T03:12:19.274Z,1015.26
2019-03-19T03:13:19.259Z,1015.31
2019-03-19T03:14:19.288Z,1015.26
2019-03-19T03:15:19.249Z,1015.33
2019-03-19T03:16:19.221Z,1015.32
2019-03-19T03:17:19.210Z,1015.30
2019-03-19T03:18:19.201Z,1015.31
2019-03-19T03:19:19.195Z,1015.33
2019-03-19T03:20:19.204Z,1015.38
2019-03-19T03:21:19.177Z,1015.37
2019-03-19T03:22:19.159Z,1015.37
2019-03-19T03:23:19.157Z,1015.36
2019-03-19T03:24:19.165Z,1015.35
2019-03-19T03:25:19.130Z,1015.41
2019-03-19T03:26:19.123Z,1015.39
2019-03-19T03:27:19.161Z,1015.41
2019-03-19T03:28:19.092Z,1015.41
2019-03-19T03:29:19.109Z,1015.37
2019-03-19T03:30:19.072Z,1015.41
2019-03-19T03:31:19.061Z,1015.42
2019-03-19T03:32:19.058Z,1015.41
2019-03-19T03:33:19.048Z,1015.41
2019-03-19T03:34:19.074Z,1015.42
2019-03-19T03:35:19.042Z,1015.45
2019-03-19T03:36:19.016Z,1015.37
2019-03-19T03:37:18.999Z,1015.42
2019-03-19T03:38:18.996Z,1015.45
2019-03-19T03:39:19.005Z,1015.45
2019-03-19T03:40:18.967Z,1015.48
2019-03-19T03:41:18.959Z,1015.43
2019-03-19T03:42:18.971Z,1015.46
2019-03-19T03:43:18.941Z,1015.42
2019-03-19T03:44:18.991Z,1015.46
2019-03-19T03:45:18.954Z,1015.47
2019-03-19T03:46:18.908Z,1015.47
2019-03-19T03:47:18.900Z,1015.50
2019-03-19T03:48:18.891Z,1015.56
2019-03-19T03:49:18.872Z,1015.55
2019-03-19T03:50:18.967Z,1015.57
2019-03-19T03:51:18.853Z,1015.54
2019-03-19T03:52:18.865Z,1015.59
2019-03-19T03:53:18.832Z,1015.63
2019-03-19T03:54:18.818Z,1015.58
2019-03-19T03:55:18.806Z,1015.56
2019-03-19T03:56:18.837Z,1015.62
2019-03-19T03:57:18.792Z,1015.65
2019-03-19T03:58:18.782Z,1015.67
2019-03-19T03:59:18.783Z,1015.65
2019-03-19T04:00:18.758Z,1015.69
2019-03-19T04:01:18.769Z,1015.67
2019-03-19T04:02:18.733Z,1015.67
2019-03-19T04:03:18.723Z,1015.76
2019-03-19T04:04:18.719Z,1015.74
2019-03-19T04:05:18.736Z,1015.79
2019-03-19T04:06:18.698Z,1015.80
2019-03-19T04:07:18.716Z,1015.81
2019-03-19T04:08:18.666Z,1015.81
2019-03-19T04:09:18.673Z,1015.83
2019-03-19T04:10:18.652Z,1015.88
2019-03-19T04:11:18.654Z,1015.88
2019-03-19T04:12:18.628Z,1015.92
2019-03-19T04:13:18.646Z,1015.88
2019-03-19T04:14:18.608Z,1015.93
2019-03-19T04:15:18.596Z,1015.95
2019-03-19T04:16:18.593Z,1015.95
2019-03-19T04:17:18.581Z,1016.01
2019-03-19T04:18:18.568Z,1016.00
2019-03-19T04:19:18.580Z,1016.04
2019-03-19T04:20:18.542Z,1016.11
2019-03-19T04:21:18.562Z,1016.12
2019-03-19T04:22:18.519Z,1016.07
2019-03-19T04:23:18.513Z,1016.08
2019-03-19T04:24:18.525Z,1016.12
2019-03-19T04:25:18.497Z,1016.21
2019-03-19T04:26:18.478Z,1016.23
2019-03-19T04:27:18.471Z,1016.16
2019-03-19T04:28:18.462Z,1016.17
2019-03-19T04:29:18.481Z,1016.15
2019-03-19T04:30:18.449Z,1016.16
2019-03-19T04:31:18.431Z,1016.24
2019-03-19T04:32:18.413Z,1016.16
2019-03-19T04:33:18.406Z,1016.21
2019-03-19T04:34:18.392Z,1016.23
2019-03-19T04:35:18.402Z,1016.22
2019-03-19T04:36:18.377Z,1016.25
2019-03-19T04:37:18.367Z,1016.21
2019-03-19T04:38:18.354Z,1016.26
2019-03-19T04:39:18.381Z,1016.24
2019-03-19T04:40:18.340Z,1016.29
2019-03-19T04:41:18.319Z,1016.31
2019-03-19T04:42:18.316Z,1016.31
2019-03-19T04:43:18.304Z,1016.28
2019-03-19T04:44:18.286Z,1016.31
2019-03-19T04:45:18.298Z,1016.32
2019-03-19T04:46:18.266Z,1016.33
2019-03-19T04:47:18.260Z,1016.32
2019-03-19T04:48:18.249Z,1016.35
2019-03-19T04:49:18.243Z,1016.35
2019-03-19T04:50:18.250Z,1016.39
2019-03-19T04:51:18.219Z,1016.36
2019-03-19T04:52:18.211Z,1016.40
2019-03-19T04:53:18.199Z,1016.40
2019-03-19T04:54:18.180Z,1016.42
2019-03-19T04:55:18.200Z,1016.40
2019-03-19T04:56:18.165Z,1016.34
2019-03-19T04:57:26.302Z,1016.43
2019-03-19T04:58:19.136Z,1016.41
2019-03-19T04:59:18.126Z,1016.46
2019-03-19T05:00:18.129Z,1016.43
2019-03-19T05:01:18.139Z,1016.46
2019-03-19T05:02:18.100Z,1016.47
2019-03-19T05:03:18.089Z,1016.46
2019-03-19T05:04:18.074Z,1016.49
2019-03-19T05:05:18.067Z,1016.49
2019-03-19T05:06:18.079Z,1016.51
2019-03-19T05:07:18.061Z,1016.55
2019-03-19T05:08:18.039Z,1016.48
2019-03-19T05:09:18.026Z,1016.56
2019-03-19T05:10:18.019Z,1016.54
2019-03-19T05:11:18.051Z,1016.57
2019-03-19T05:12:17.993Z,1016.53
2019-03-19T05:13:17.982Z,1016.64
2019-03-19T05:14:17.973Z,1016.63
2019-03-19T05:15:17.963Z,1016.63
2019-03-19T05:16:17.948Z,1016.67
2019-03-19T05:17:17.975Z,1016.74
2019-03-19T05:18:17.934Z,1016.80
2019-03-19T05:19:17.948Z,1016.74
2019-03-19T05:20:17.933Z,1016.75
2019-03-19T05:21:17.900Z,1016.77
2019-03-19T05:22:17.889Z,1016.79
2019-03-19T05:23:17.876Z,1016.85
2019-03-19T05:24:17.866Z,1016.86
2019-03-19T05:25:17.872Z,1016.82
2019-03-19T05:26:17.861Z,1016.85
2019-03-19T05:27:17.829Z,1016.90
2019-03-19T05:28:17.844Z,1016.89
2019-03-19T05:29:17.816Z,1016.95
2019-03-19T05:30:17.869Z,1016.96
2019-03-19T05:31:17.828Z,1017.00
2019-03-19T05:32:17.784Z,1017.02
2019-03-19T05:33:19.488Z,1017.04
2019-03-19T05:34:17.764Z,1017.08
2019-03-19T05:35:17.751Z,1017.06
2019-03-19T05:36:17.732Z,1017.05
2019-03-19T05:37:17.750Z,1017.10
2019-03-19T05:38:17.725Z,1017.13
2019-03-19T05:39:17.716Z,1017.11
2019-03-19T05:40:17.714Z,1017.15
2019-03-19T05:41:17.680Z,1017.13
2019-03-19T05:42:17.701Z,1017.12
2019-03-19T05:43:17.661Z,1017.14
2019-03-19T05:44:17.655Z,1017.18
2019-03-19T05:45:17.654Z,1017.20
2019-03-19T05:46:17.626Z,1017.20
2019-03-19T05:47:17.615Z,1017.25
2019-03-19T05:48:17.656Z,1017.22
2019-03-19T05:49:17.610Z,1017.26
2019-03-19T05:50:17.594Z,1017.31
2019-03-19T05:51:17.580Z,1017.30
2019-03-19T05:52:17.564Z,1017.30
2019-03-19T05:53:17.574Z,1017.33
2019-03-19T05:54:17.553Z,1017.36
2019-03-19T05:55:17.535Z,1017.32
2019-03-19T05:56:17.529Z,1017.37
2019-03-19T05:57:17.517Z,1017.36
2019-03-19T05:58:17.529Z,1017.35
2019-03-19T05:59:17.502Z,1017.34
2019-03-19T06:00:17.480Z,1017.35
2019-03-19T06:01:17.472Z,1017.34
2019-03-19T06:02:17.469Z,1017.40
2019-03-19T06:03:17.475Z,1017.45
2019-03-19T06:04:17.434Z,1017.45
2019-03-19T06:05:17.427Z,1017.42
2019-03-19T06:06:17.426Z,1017.47
2019-03-19T06:07:17.403Z,1017.53
2019-03-19T06:08:17.536Z,1017.47
2019-03-19T06:09:17.388Z,1017.52
2019-03-19T06:10:17.378Z,1017.51
2019-03-19T06:11:17.367Z,1017.51
2019-03-19T06:12:17.353Z,1017.54
2019-03-19T06:13:17.363Z,1017.53
2019-03-19T06:14:17.331Z,1017.59
2019-03-19T06:15:17.319Z,1017.59
2019-03-19T06:16:17.321Z,1017.55
2019-03-19T06:17:17.305Z,1017.59
2019-03-19T06:18:17.318Z,1017.59
2019-03-19T06:19:17.275Z,1017.53
2019-03-19T06:20:17.271Z,1017.57
2019-03-19T06:21:17.261Z,1017.61
2019-03-19T06:22:17.257Z,1017.61
2019-03-19T06:23:17.240Z,1017.61
2019-03-19T06:24:17.243Z,1017.68
2019-03-19T06:25:17.225Z,1017.67
2019-03-19T06:26:17.204Z,1017.72
2019-03-19T06:27:17.191Z,1017.73
2019-03-19T06:28:17.188Z,1017.68
2019-03-19T06:29:17.195Z,1017.75
2019-03-19T06:30:17.173Z,1017.78
2019-03-19T06:31:17.158Z,1017.76
2019-03-19T06:32:17.139Z,1017.83
2019-03-19T06:33:17.126Z,1017.80
2019-03-19T06:34:17.144Z,1017.81
2019-03-19T06:35:17.115Z,1017.79
2019-03-19T06:36:17.109Z,1017.77
2019-03-19T06:37:17.086Z,1017.78
2019-03-19T06:38:17.084Z,1017.79
2019-03-19T06:39:17.098Z,1017.81
2019-03-19T06:40:17.081Z,1017.84
2019-03-19T06:41:17.049Z,1017.87
2019-03-19T06:42:17.092Z,1017.87
2019-03-19T06:43:17.034Z,1017.92
2019-03-19T06:44:17.043Z,1017.91
2019-03-19T06:45:17.000Z,1017.95
2019-03-19T06:46:16.996Z,1017.98
2019-03-19T06:47:16.988Z,1017.94
2019-03-19T06:48:16.982Z,1017.92
2019-03-19T06:49:17.024Z,1017.91
2019-03-19T06:50:16.957Z,1017.86
2019-03-19T06:51:16.942Z,1017.85
2019-03-19T06:52:16.937Z,1017.85
2019-03-19T06:53:16.930Z,1017.86
2019-03-19T06:54:16.948Z,1017.86
2019-03-19T06:55:16.907Z,1017.84
2019-03-19T06:56:16.890Z,1017.87
2019-03-19T06:57:16.890Z,1017.84
2019-03-19T06:58:16.870Z,1017.87
2019-03-19T06:59:16.861Z,1017.84
2019-03-19T07:00:16.897Z,1017.79
2019-03-19T07:01:17.528Z,1017.82
2019-03-19T07:02:16.834Z,1017.91
2019-03-19T07:03:16.839Z,1017.87
2019-03-19T07:04:16.809Z,1017.92
2019-03-19T07:05:16.798Z,1017.92
2019-03-19T07:06:16.808Z,1017.96
2019-03-19T07:07:16.779Z,1017.97
2019-03-19T07:08:16.765Z,1017.99
2019-03-19T07:09:16.764Z,1017.97
2019-03-19T07:10:16.737Z,1017.99
2019-03-19T07:11:16.747Z,1018.05
2019-03-19T07:12:16.724Z,1018.07
2019-03-19T07:13:16.711Z,1018.09
2019-03-19T07:14:16.725Z,1018.06
2019-03-19T07:15:16.688Z,1018.08
2019-03-19T07:16:16.672Z,1018.12
2019-03-19T07:17:16.679Z,1017.96
2019-03-19T07:18:16.655Z,1018.07
2019-03-19T07:19:16.667Z,1017.94
2019-03-19T07:20:16.680Z,1018.08
2019-03-19T07:21:16.625Z,1018.05
2019-03-19T07:22:16.610Z,1018.09
2019-03-19T07:23:16.603Z,1018.10
2019-03-19T07:24:16.614Z,1018.09
2019-03-19T07:25:16.595Z,1018.09
2019-03-19T07:26:16.598Z,1018.11
2019-03-19T07:27:16.560Z,1018.14
2019-03-19T07:28:21.889Z,1018.11
2019-03-19T07:29:17.587Z,1018.16
2019-03-19T07:30:16.532Z,1018.13
2019-03-19T07:31:16.514Z,1018.06
2019-03-19T07:32:16.509Z,1018.10
2019-03-19T07:33:16.518Z,1018.12
2019-03-19T07:34:16.511Z,1018.18
2019-03-19T07:35:16.512Z,1018.12
2019-03-19T07:36:16.456Z,1018.16
2019-03-19T07:37:16.555Z,1018.16
2019-03-19T07:38:16.442Z,1018.20
2019-03-19T07:39:16.454Z,1018.23
2019-03-19T07:40:16.431Z,1018.25
2019-03-19T07:41:17.624Z,1018.30
2019-03-19T07:42:16.394Z,1018.27
2019-03-19T07:43:16.388Z,1018.29
2019-03-19T07:44:16.407Z,1018.29
2019-03-19T07:45:16.382Z,1018.34
2019-03-19T07:46:16.370Z,1018.36
2019-03-19T07:47:16.371Z,1018.36
2019-03-19T07:48:16.332Z,1018.37
2019-03-19T07:49:16.342Z,1018.41
2019-03-19T07:50:16.317Z,1018.43
2019-03-19T07:51:16.300Z,1018.54
2019-03-19T07:52:16.294Z,1018.51
2019-03-19T07:53:16.319Z,1018.58
2019-03-19T07:54:16.269Z,1018.53
2019-03-19T07:55:16.263Z,1018.53
2019-03-19T07:56:16.254Z,1018.60
2019-03-19T07:57:16.244Z,1018.60
2019-03-19T07:58:16.234Z,1018.54
2019-03-19T07:59:16.248Z,1018.62
2019-03-19T08:00:16.205Z,1018.66
2019-03-19T08:01:16.194Z,1018.68
2019-03-19T08:02:16.206Z,1018.61
2019-03-19T08:03:16.590Z,1018.65
2019-03-19T08:04:16.169Z,1018.68
2019-03-19T08:05:16.184Z,1018.72
2019-03-19T08:06:16.184Z,1018.66
2019-03-19T08:07:16.176Z,1018.69
2019-03-19T08:08:16.119Z,1018.65
2019-03-19T08:09:16.240Z,1018.69
2019-03-19T08:10:16.132Z,1018.74
2019-03-19T08:11:16.808Z,1018.70
2019-03-19T08:12:16.134Z,1018.73
2019-03-19T08:13:16.094Z,1018.70
2019-03-19T08:14:16.095Z,1018.74
2019-03-19T08:15:16.084Z,1018.73
2019-03-19T08:16:26.868Z,1018.84
2019-03-19T08:17:17.069Z,1018.82
2019-03-19T08:18:16.083Z,1018.91
2019-03-19T08:19:16.113Z,1018.81
2019-03-19T08:20:15.997Z,1018.86
2019-03-19T08:21:15.987Z,1018.95
2019-03-19T08:22:16.020Z,1018.90
2019-03-19T08:23:16.053Z,1018.86
2019-03-19T08:24:15.957Z,1018.84
2019-03-19T08:25:15.979Z,1018.88
2019-03-19T08:26:15.958Z,1018.91
2019-03-19T08:27:15.937Z,1018.82
2019-03-19T08:28:15.994Z,1018.90
2019-03-19T08:29:15.917Z,1018.96
2019-03-19T08:30:15.932Z,1018.96
2019-03-19T08:31:15.913Z,1018.93
2019-03-19T08:32:15.886Z,1018.98
2019-03-19T08:33:15.872Z,1019.05
2019-03-19T08:34:15.870Z,1019.06
2019-03-19T08:35:15.864Z,1019.01
2019-03-19T08:36:15.845Z,1019.06
2019-03-19T08:37:15.857Z,1019.05
2019-03-19T08:38:15.878Z,1019.12
2019-03-19T08:39:15.834Z,1019.06
2019-03-19T08:40:15.823Z,1019.09
2019-03-19T08:41:15.806Z,1019.14
2019-03-19T08:42:15.830Z,1019.12
2019-03-19T08:43:15.788Z,1019.16
2019-03-19T08:44:15.802Z,1019.15
2019-03-19T08:45:15.759Z,1019.11
2019-03-19T08:46:15.749Z,1019.10
2019-03-19T08:47:15.729Z,1019.12
2019-03-19T08:48:15.733Z,1019.10
2019-03-19T08:49:15.725Z,1019.17
2019-03-19T08:50:15.713Z,1019.09
2019-03-19T08:51:15.704Z,1019.17
2019-03-19T08:52:15.694Z,1019.13
2019-03-19T08:53:15.672Z,1019.15
2019-03-19T08:54:15.649Z,1019.15
2019-03-19T08:55:15.689Z,1019.06
2019-03-19T08:56:15.645Z,1019.05
2019-03-19T08:57:15.628Z,1019.04
2019-03-19T08:58:15.612Z,1019.04
2019-03-19T08:59:15.627Z,1019.05
2019-03-19T09:00:15.644Z,1019.03
2019-03-19T09:01:15.575Z,1019.08
2019-03-19T09:02:15.576Z,1019.06
2019-03-19T09:03:15.559Z,1019.13
2019-03-19T09:04:15.544Z,1019.08
2019-03-19T09:05:15.583Z,1019.25
2019-03-19T09:06:15.531Z,1019.34
2019-03-19T09:07:15.514Z,1019.39
2019-03-19T09:08:15.503Z,1019.39
2019-03-19T09:09:15.506Z,1019.34
2019-03-19T09:10:15.525Z,1019.44
2019-03-19T09:11:15.480Z,1019.41
2019-03-19T09:12:15.464Z,1019.49
2019-03-19T09:13:15.464Z,1019.06
2019-03-19T09:14:15.457Z,1019.40
2019-03-19T09:15:15.477Z,1019.10
2019-03-19T09:16:15.387Z,1019.21
2019-03-19T09:17:15.385Z,1019.06
2019-03-19T09:18:16.181Z,1019.18
2019-03-19T09:19:15.359Z,1019.25
2019-03-19T09:20:15.353Z,1019.51
2019-03-19T09:21:15.373Z,1019.20
2019-03-19T09:22:15.331Z,1019.64
2019-03-19T09:23:15.319Z,1019.66
2019-03-19T09:24:15.305Z,1019.67
2019-03-19T09:25:15.295Z,1019.74
2019-03-19T09:26:15.319Z,1019.48
2019-03-19T09:27:15.272Z,1019.22
2019-03-19T09:28:15.267Z,1019.24
2019-03-19T09:29:17.153Z,1019.31
2019-03-19T09:30:15.239Z,1019.24
2019-03-19T09:31:15.238Z,1019.36
2019-03-19T09:32:15.246Z,1019.37
2019-03-19T09:33:15.214Z,1019.35
2019-03-19T09:34:15.204Z,1019.31
2019-03-19T09:35:15.279Z,1019.40
2019-03-19T09:36:15.175Z,1019.67
2019-03-19T09:37:15.169Z,1019.49
2019-03-19T09:38:15.184Z,1019.76
2019-03-19T09:39:15.143Z,1019.75
2019-03-19T09:40:15.137Z,1019.28
2019-03-19T09:41:15.128Z,1019.28
2019-03-19T09:42:15.117Z,1019.32
2019-03-19T09:43:15.148Z,1019.20
2019-03-19T09:44:15.093Z,1019.33
2019-03-19T09:45:15.079Z,1019.26
2019-03-19T09:46:15.078Z,1019.41
2019-03-19T09:47:15.063Z,1019.38
2019-03-19T09:48:15.074Z,1019.35
2019-03-19T09:49:15.040Z,1019.82
2019-03-19T09:50:15.024Z,1019.88
2019-03-19T09:51:15.014Z,1019.72
2019-03-19T09:52:15.030Z,1019.75
2019-03-19T09:53:15.076Z,1019.88
2019-03-19T09:54:14.989Z,1019.87
2019-03-19T09:55:14.979Z,1019.48
2019-03-19T09:56:14.969Z,1019.90
2019-03-19T09:57:14.955Z,1019.92
2019-03-19T09:58:14.964Z,1019.97
2019-03-19T09:59:14.931Z,1019.91
2019-03-19T10:00:14.929Z,1019.94
2019-03-19T10:01:14.919Z,1020.01
2019-03-19T10:02:14.900Z,1019.97
2019-03-19T10:03:14.896Z,1020.03
2019-03-19T10:04:14.913Z,1020.05
2019-03-19T10:05:14.879Z,1019.94
2019-03-19T10:06:14.867Z,1020.13
2019-03-19T10:07:14.857Z,1019.58
2019-03-19T10:08:14.864Z,1020.10
2019-03-19T10:09:14.852Z,1019.98
2019-03-19T10:10:14.823Z,1019.82
2019-03-19T10:11:14.811Z,1019.80
2019-03-19T10:12:14.806Z,1019.50
2019-03-19T10:13:15.178Z,1019.55
2019-03-19T10:14:14.806Z,1020.07
2019-03-19T10:15:14.778Z,1020.07
2019-03-19T10:16:14.767Z,1020.11
2019-03-19T10:17:14.772Z,1020.12
2019-03-19T10:18:14.753Z,1020.14
2019-03-19T10:19:14.758Z,1020.08
2019-03-19T10:20:14.720Z,1020.12
2019-03-19T10:21:14.712Z,1020.10
2019-03-19T10:22:15.320Z,1020.12
2019-03-19T10:23:14.692Z,1020.21
2019-03-19T10:24:14.716Z,1020.11
2019-03-19T10:25:14.676Z,1020.01
2019-03-19T10:26:14.670Z,1019.83
2019-03-19T10:27:14.656Z,1019.77
2019-03-19T10:28:14.648Z,1019.81
2019-03-19T10:29:14.635Z,1019.86
2019-03-19T10:30:14.684Z,1019.84
2019-03-19T10:31:14.609Z,1019.85
2019-03-19T10:32:14.620Z,1019.69
2019-03-19T10:33:15.998Z,1019.74
2019-03-19T10:34:14.579Z,1019.77
2019-03-19T10:35:14.585Z,1019.74
2019-03-19T10:36:14.586Z,1019.59
2019-03-19T10:37:14.555Z,1019.74
2019-03-19T10:38:14.544Z,1019.78
2019-03-19T10:39:14.543Z,1019.77
2019-03-19T10:40:14.516Z,1019.74
2019-03-19T10:41:14.532Z,1019.73
2019-03-19T10:42:14.494Z,1019.71
2019-03-19T10:43:14.491Z,1019.65
2019-03-19T10:44:14.483Z,1019.71
2019-03-19T10:45:14.519Z,1019.72
2019-03-19T10:46:14.974Z,1019.80
2019-03-19T10:47:14.450Z,1019.83
2019-03-19T10:48:14.432Z,1019.76
2019-03-19T10:49:14.425Z,1019.79
2019-03-19T10:50:14.426Z,1019.83
2019-03-19T10:51:14.406Z,1019.89
2019-03-19T10:52:14.410Z,1019.83
2019-03-19T10:53:14.382Z,1019.73
2019-03-19T10:54:14.372Z,1019.70
2019-03-19T10:55:14.364Z,1019.73
2019-03-19T10:56:14.352Z,1019.71
2019-03-19T10:57:14.363Z,1019.72
2019-03-19T10:58:14.335Z,1019.65
2019-03-19T10:59:14.320Z,1019.74
2019-03-19T11:00:14.313Z,1019.76
2019-03-19T11:01:14.297Z,1019.68
2019-03-19T11:02:14.308Z,1019.64
2019-03-19T11:03:14.293Z,1019.68
2019-03-19T11:04:14.284Z,1019.69
2019-03-19T11:05:14.263Z,1019.67
2019-03-19T11:06:14.239Z,1019.68
2019-03-19T11:07:15.300Z,1019.65
2019-03-19T11:08:14.228Z,1019.69
2019-03-19T11:09:14.216Z,1019.80
2019-03-19T11:10:14.212Z,1019.86
2019-03-19T11:11:14.195Z,1019.80
2019-03-19T11:12:14.195Z,1019.80
2019-03-19T11:13:14.166Z,1019.76
2019-03-19T11:14:14.156Z,1019.78
2019-03-19T11:15:14.148Z,1019.82
2019-03-19T11:16:14.139Z,1019.81
2019-03-19T11:17:14.158Z,1019.80
2019-03-19T11:18:14.119Z,1019.78
2019-03-19T11:19:14.107Z,1019.83
2019-03-19T11:20:14.092Z,1019.83
2019-03-19T11:21:14.084Z,1019.81
2019-03-19T11:22:14.102Z,1019.85
2019-03-19T11:23:14.080Z,1019.83
2019-03-19T11:24:14.049Z,1019.80
2019-03-19T11:25:14.038Z,1019.79
2019-03-19T11:26:14.025Z,1019.81
2019-03-19T11:27:14.014Z,1019.81
2019-03-19T11:28:14.031Z,1019.93
2019-03-19T11:29:14.015Z,1019.96
2019-03-19T11:30:13.991Z,1019.99
2019-03-19T11:31:13.977Z,1019.97
2019-03-19T11:32:13.959Z,1019.94
2019-03-19T11:33:13.982Z,1019.85
2019-03-19T11:34:13.942Z,1019.88
2019-03-19T11:35:13.938Z,1019.89
2019-03-19T11:36:13.924Z,1019.91
2019-03-19T11:37:13.921Z,1019.90
2019-03-19T11:38:13.898Z,1019.99
2019-03-19T11:39:13.906Z,1020.00
2019-03-19T11:40:13.891Z,1019.97
2019-03-19T11:41:13.883Z,1020.05
2019-03-19T11:42:13.860Z,1020.04
2019-03-19T11:43:13.850Z,1020.02
2019-03-19T11:44:13.866Z,1020.02
2019-03-19T11:45:13.827Z,1020.05
2019-03-19T11:46:13.812Z,1020.03
2019-03-19T11:47:13.805Z,1020.03
2019-03-19T11:48:13.799Z,1019.98
2019-03-19T11:49:13.859Z,1019.99
2019-03-19T11:50:13.793Z,1020.05
2019-03-19T11:51:13.763Z,1020.00
2019-03-19T11:52:13.769Z,1020.05
2019-03-19T11:53:13.739Z,1020.06
2019-03-19T11:54:13.747Z,1020.05
2019-03-19T11:55:13.749Z,1020.10
2019-03-19T11:56:13.706Z,1020.05
2019-03-19T11:57:13.704Z,1020.01
2019-03-19T11:58:13.716Z,1020.09
2019-03-19T11:59:13.679Z,1020.04
2019-03-19T12:00:13.671Z,1020.07
2019-03-19T12:01:13.679Z,1020.04
2019-03-19T12:02:13.648Z,1020.04
2019-03-19T12:03:16.338Z,1020.03
2019-03-19T12:04:13.627Z,1020.05
2019-03-19T12:05:13.608Z,1020.01